createdAt,value
2023-01-20T00:05:42.120Z,0.00
2023-01-20T00:16:43.908Z,0.00
2023-01-20T00:27:45.595Z,0.00
2023-01-20T00:38:48.346Z,0.00
2023-01-20T00:49:50.058Z,0.00
2023-01-20T01:00:51.891Z,0.00
2023-01-20T01:11:54.535Z,0.00
2023-01-20T01:22:56.326Z,0.00
2023-01-20T01:33:59.049Z,0.00
2023-01-20T01:45:00.808Z,0.00
2023-01-20T01:56:02.500Z,0.00
2023-01-20T02:07:04.232Z,0.00
2023-01-20T02:18:05.961Z,0.00
2023-01-20T02:29:07.759Z,0.00
2023-01-20T02:40:09.475Z,0.00
2023-01-20T02:51:11.215Z,0.00
2023-01-20T03:02:13.933Z,0.00
2023-01-20T03:13:15.708Z,0.00
2023-01-20T03:24:17.392Z,2.19
2023-01-20T03:35:19.139Z,0.00
2023-01-20T03:46:20.836Z,0.00
2023-01-20T03:57:22.583Z,0.00
2023-01-20T04:08:24.295Z,0.00
2023-01-20T04:19:26.037Z,0.00
2023-01-20T04:30:27.774Z,0.00
2023-01-20T04:41:30.526Z,0.00
2023-01-20T04:52:32.234Z,0.00
2023-01-20T05:03:35.010Z,0.00
2023-01-20T05:14:36.703Z,0.00
2023-01-20T05:25:38.465Z,0.00
2023-01-20T05:36:40.193Z,0.00
2023-01-20T05:47:41.961Z,0.00
2023-01-20T05:58:43.679Z,0.00
2023-01-20T06:09:45.445Z,0.00
2023-01-20T06:20:47.155Z,0.00
2023-01-20T06:31:48.907Z,0.00
2023-01-20T06:42:50.594Z,0.00
2023-01-20T06:53:52.375Z,0.00
2023-01-20T07:04:54.087Z,0.00
2023-01-20T07:15:55.894Z,0.00
2023-01-20T07:19:37.449Z,4.53
2023-01-20T07:23:19.029Z,2.67
2023-01-20T07:27:00.634Z,2.65
2023-01-20T07:38:02.371Z,0.00
2023-01-20T07:49:04.086Z,0.00
2023-01-20T08:00:05.834Z,0.00
2023-01-20T08:11:07.529Z,0.00
2023-01-20T08:22:09.294Z,0.00
2023-01-20T08:33:11.030Z,0.00
2023-01-20T08:36:52.672Z,3.99
2023-01-20T08:40:34.314Z,2.56
2023-01-20T08:44:15.947Z,3.24
2023-01-20T08:47:57.548Z,2.51
2023-01-20T08:51:39.246Z,2.57
2023-01-20T08:55:20.778Z,2.62
2023-01-20T08:59:02.462Z,3.42
2023-01-20T09:10:04.200Z,0.00
2023-01-20T09:21:05.918Z,0.00
2023-01-20T09:32:07.627Z,0.00
2023-01-20T09:39:29.469Z,3.35
2023-01-20T09:43:10.873Z,2.67
2023-01-20T09:50:32.557Z,3.82
2023-01-20T09:54:14.169Z,3.48
2023-01-20T09:57:55.804Z,3.69
2023-01-20T10:01:37.416Z,3.41
2023-01-20T10:05:19.010Z,2.87
2023-01-20T10:09:05.830Z,1.90
2023-01-20T10:12:42.115Z,2.48
2023-01-20T10:23:43.855Z,0.00
2023-01-20T10:34:45.604Z,0.00
2023-01-20T10:45:47.302Z,0.00
2023-01-20T10:53:08.916Z,2.09
2023-01-20T11:04:10.677Z,0.00
2023-01-20T11:15:12.381Z,0.00
2023-01-20T11:18:53.944Z,2.09
2023-01-20T11:26:15.623Z,2.09
2023-01-20T11:33:37.318Z,3.79
2023-01-20T11:37:19.084Z,3.10
2023-01-20T11:41:00.682Z,2.25
2023-01-20T11:48:22.450Z,2.86
2023-01-20T11:59:24.212Z,0.00
2023-01-20T12:10:25.944Z,0.00
2023-01-20T12:21:27.656Z,0.00
2023-01-20T12:32:29.531Z,0.00
2023-01-20T12:43:31.125Z,0.00
2023-01-20T12:54:47.474Z,0.00
2023-01-20T13:05:34.581Z,0.00
2023-01-20T13:16:36.390Z,0.00
2023-01-20T13:27:38.026Z,0.00
2023-01-20T13:38:39.794Z,0.00
2023-01-20T13:49:41.534Z,0.00
2023-01-20T14:00:43.315Z,0.00
2023-01-20T14:11:45.041Z,0.00
2023-01-20T14:22:46.820Z,0.00
2023-01-20T14:33:48.537Z,0.00
2023-01-20T14:44:50.298Z,0.00
2023-01-20T14:55:52.016Z,0.00
2023-01-20T15:06:53.817Z,1.70
2023-01-20T15:17:55.523Z,0.00
2023-01-20T15:21:37.205Z,2.68
2023-01-20T15:25:18.861Z,2.74
2023-01-20T15:29:00.545Z,3.89
2023-01-20T15:32:42.161Z,2.27
2023-01-20T15:43:43.916Z,0.00
2023-01-20T15:54:45.632Z,0.00
2023-01-20T16:05:47.369Z,0.00
2023-01-20T16:16:49.086Z,0.00
2023-01-20T16:27:50.916Z,0.00
2023-01-20T16:38:52.634Z,0.00
2023-01-20T16:49:54.398Z,0.00
2023-01-20T17:00:56.170Z,0.00
2023-01-20T17:11:57.996Z,0.00
2023-01-20T17:22:59.836Z,0.00
2023-01-20T17:34:02.366Z,0.00
2023-01-20T17:45:04.008Z,0.00
2023-01-20T17:56:12.284Z,0.00
2023-01-20T18:07:07.522Z,0.00
2023-01-20T18:18:09.330Z,0.00
2023-01-20T18:29:11.109Z,0.00
2023-01-20T18:40:13.064Z,0.00
2023-01-20T18:51:15.177Z,0.00
2023-01-20T19:02:17.087Z,0.00
2023-01-20T19:13:19.031Z,0.00
2023-01-20T19:24:21.147Z,0.00
2023-01-20T19:35:23.139Z,0.00
2023-01-20T19:46:25.214Z,0.00
2023-01-20T19:57:26.964Z,0.00
2023-01-20T20:08:28.876Z,0.00
2023-01-20T20:19:30.829Z,0.00
2023-01-20T20:30:32.979Z,0.00
2023-01-20T20:41:34.817Z,0.00
2023-01-20T20:52:36.758Z,0.00
2023-01-20T21:03:38.712Z,0.00
2023-01-20T21:14:40.574Z,0.00
2023-01-20T21:25:42.293Z,0.00
2023-01-20T21:36:44.076Z,0.00
2023-01-20T21:47:45.911Z,0.00
2023-01-20T21:58:47.769Z,0.00
2023-01-20T22:09:49.487Z,0.00
2023-01-20T22:20:51.244Z,0.00
2023-01-20T22:31:53.014Z,0.00
2023-01-20T22:42:54.712Z,0.00
2023-01-20T22:53:56.430Z,0.00
2023-01-20T23:04:58.207Z,0.00
2023-01-20T23:16:00.912Z,0.00
2023-01-20T23:27:02.678Z,0.00
2023-01-20T23:38:04.399Z,0.00
2023-01-20T23:49:06.150Z,0.00
